Time;durP1;ratioP1;P1;durP2;ratioP2;P2;SDS_P1;SDS_P2;PMS_P1;PMS_P2;Temp;Humidity;BMP_temperature;BMP_pressure;BME280_temperature;BME280_humidity;BME280_pressure;Samples;Min_cycle;Max_cycle;Signal;HPM_P1;HPM_P2
2022/04/21 00:00:42;;;;;;;4.03;3.67;;;7.00;99.90;;;;;;5051554;28;20209;-52
2022/04/21 00:03:11;;;;;;;3.80;3.40;;;7.00;99.90;;;;;;5044848;28;20259;-49
2022/04/21 00:05:37;;;;;;;5.30;3.40;;;7.00;99.90;;;;;;5059960;28;20198;-48
2022/04/21 00:08:05;;;;;;;4.43;3.57;;;6.90;99.90;;;;;;5061818;28;20673;-48
2022/04/21 00:10:32;;;;;;;4.37;3.77;;;6.80;99.90;;;;;;5050640;28;20619;-52
2022/04/21 00:12:59;;;;;;;4.80;3.90;;;6.90;99.90;;;;;;5039992;28;20222;-49
2022/04/21 00:15:27;;;;;;;6.10;4.10;;;6.90;99.90;;;;;;5055032;28;20227;-50
2022/04/21 00:17:54;;;;;;;4.40;3.73;;;6.90;99.90;;;;;;5055724;28;20940;-48
2022/04/21 00:20:23;;;;;;;5.97;3.97;;;6.90;99.90;;;;;;5049663;28;20199;-53
2022/04/21 00:25:33;;;;;;;4.27;3.80;;;6.80;99.90;;;;;;5046209;28;20191;-49
2022/04/21 00:28:00;;;;;;;5.90;4.20;;;6.80;99.90;;;;;;5057063;28;20202;-47
2022/04/21 00:30:28;;;;;;;4.13;3.73;;;6.80;99.90;;;;;;5038636;28;20608;-52
2022/04/21 00:32:55;;;;;;;5.73;4.57;;;6.70;99.90;;;;;;5046519;28;20238;-51
2022/04/21 00:35:23;;;;;;;4.77;4.30;;;6.70;99.90;;;;;;5049203;28;20228;-49
2022/04/21 00:37:51;;;;;;;4.27;3.70;;;6.70;99.90;;;;;;5040533;28;20195;-50
2022/04/21 00:40:20;;;;;;;3.77;3.47;;;6.70;99.90;;;;;;5051649;28;20277;-50
2022/04/21 00:42:47;;;;;;;4.57;4.00;;;6.70;99.90;;;;;;5055092;28;20225;-46
2022/04/21 00:45:15;;;;;;;4.53;3.93;;;6.70;99.90;;;;;;5043142;28;20210;-46
2022/04/21 00:47:44;;;;;;;4.20;3.67;;;6.60;99.90;;;;;;5056171;28;20203;-47
2022/04/21 00:50:13;;;;;;;3.60;3.30;;;6.70;99.90;;;;;;5048771;28;20211;-47
2022/04/21 00:52:42;;;;;;;5.37;3.70;;;6.60;99.90;;;;;;5043367;28;20230;-49
2022/04/21 00:55:10;;;;;;;4.67;3.70;;;6.60;99.90;;;;;;5048127;28;20226;-48
2022/04/21 00:57:38;;;;;;;5.37;4.07;;;6.60;99.90;;;;;;5055476;28;20214;-50
2022/04/21 01:00:07;;;;;;;5.77;4.07;;;6.60;99.90;;;;;;5043655;28;20673;-48
2022/04/21 01:02:52;;;;;;;6.00;4.07;;;6.50;99.90;;;;;;5056675;28;20290;-50
2022/04/21 01:05:26;;;;;;;4.43;3.60;;;6.60;99.90;;;;;;5054893;28;20286;-49
2022/04/21 01:07:55;;;;;;;4.90;4.07;;;6.60;99.90;;;;;;5055280;28;20195;-49
2022/04/21 01:10:23;;;;;;;4.80;3.60;;;6.50;99.90;;;;;;5048764;28;20204;-52
2022/04/21 01:12:50;;;;;;;5.13;4.13;;;6.50;99.90;;;;;;5050371;28;20220;-51
2022/04/21 01:15:16;;;;;;;5.60;4.33;;;6.50;99.90;;;;;;5050415;28;20215;-49
2022/04/21 01:17:45;;;;;;;6.43;4.27;;;6.50;99.90;;;;;;5042900;28;20212;-48
2022/04/21 01:20:18;;;;;;;8.30;4.30;;;6.50;99.90;;;;;;5049103;28;20208;-50
2022/04/21 01:22:45;;;;;;;5.33;4.13;;;6.50;99.90;;;;;;5044225;28;20219;-51
2022/04/21 01:25:12;;;;;;;5.23;4.27;;;6.50;99.90;;;;;;5046875;28;20200;-48
2022/04/21 01:27:39;;;;;;;5.43;3.83;;;6.50;99.90;;;;;;5053009;28;20206;-53
2022/04/21 01:30:08;;;;;;;6.77;3.57;;;6.50;99.90;;;;;;5058767;28;20596;-49
2022/04/21 01:32:36;;;;;;;5.63;3.90;;;6.50;99.90;;;;;;5048657;28;20222;-51
2022/04/21 01:35:05;;;;;;;4.40;3.80;;;6.50;99.90;;;;;;5050513;28;20242;-49
2022/04/21 01:43:03;;;;;;;9.73;5.50;;;6.40;99.90;;;;;;5057506;28;20663;-50
2022/04/21 01:45:30;;;;;;;5.03;4.20;;;6.40;99.90;;;;;;5046730;28;20227;-51
2022/04/21 01:47:57;;;;;;;5.87;4.20;;;6.40;99.90;;;;;;5050867;28;20205;-48
2022/04/21 01:50:24;;;;;;;5.10;3.83;;;6.40;99.90;;;;;;5050556;28;20211;-51
2022/04/21 01:52:52;;;;;;;8.57;4.20;;;6.40;99.90;;;;;;5048913;28;20214;-47
2022/04/21 01:55:20;;;;;;;5.87;4.13;;;6.40;99.90;;;;;;5046526;28;20216;-49
2022/04/21 01:57:47;;;;;;;4.67;4.27;;;6.40;99.90;;;;;;5042700;28;20214;-51
2022/04/21 02:00:14;;;;;;;4.27;3.80;;;6.30;99.90;;;;;;5055362;28;20206;-47
2022/04/21 02:02:41;;;;;;;5.37;3.90;;;6.40;99.90;;;;;;5039543;28;20226;-47
2022/04/21 02:05:09;;;;;;;6.63;4.43;;;6.30;99.90;;;;;;5059455;28;20249;-45
2022/04/21 02:07:36;;;;;;;4.27;3.87;;;6.30;99.90;;;;;;5044021;28;20570;-51
2022/04/21 02:10:06;;;;;;;4.77;4.30;;;6.30;99.90;;;;;;5051559;28;20257;-47
2022/04/21 02:12:33;;;;;;;5.80;4.60;;;6.30;99.90;;;;;;5054181;28;20643;-49
2022/04/21 02:15:01;;;;;;;4.90;3.93;;;6.30;99.90;;;;;;5049558;28;20286;-51
2022/04/21 02:17:32;;;;;;;5.57;4.53;;;6.30;99.90;;;;;;5044437;28;20674;-51
2022/04/21 02:19:59;;;;;;;4.73;4.23;;;6.30;99.90;;;;;;5055670;28;20207;-49
2022/04/21 02:22:26;;;;;;;6.83;4.20;;;6.20;99.90;;;;;;5053771;28;20215;-52
2022/04/21 02:24:53;;;;;;;4.30;3.63;;;6.30;99.90;;;;;;5048283;28;20229;-48
2022/04/21 02:27:21;;;;;;;10.83;4.67;;;6.20;99.90;;;;;;5051593;28;20211;-47
2022/04/21 02:29:49;;;;;;;4.57;4.17;;;6.20;99.90;;;;;;5040265;28;20255;-52
2022/04/21 02:32:16;;;;;;;4.50;4.10;;;6.30;99.90;;;;;;5049955;28;20692;-47
2022/04/21 02:34:43;;;;;;;5.67;4.37;;;6.20;99.90;;;;;;5056983;28;20950;-49
2022/04/21 02:37:10;;;;;;;5.37;4.00;;;6.20;99.90;;;;;;5056153;28;20641;-50
2022/04/21 02:39:36;;;;;;;5.90;4.23;;;6.10;99.90;;;;;;5054823;28;20203;-52
2022/04/21 02:42:04;;;;;;;5.67;4.13;;;6.10;99.90;;;;;;5046488;28;20246;-49
2022/04/21 02:44:33;;;;;;;5.73;4.07;;;6.10;99.90;;;;;;5047405;28;20286;-49
2022/04/21 02:47:00;;;;;;;4.57;4.17;;;6.10;99.90;;;;;;5053128;28;20903;-48
2022/04/21 02:49:28;;;;;;;6.33;3.73;;;6.10;99.90;;;;;;5048397;28;20210;-51
2022/04/21 02:51:55;;;;;;;5.77;3.83;;;6.10;99.90;;;;;;5048651;28;20277;-49
2022/04/21 02:57:22;;;;;;;6.50;3.80;;;6.10;99.90;;;;;;5058863;28;20253;-52
2022/04/21 02:59:52;;;;;;;5.17;3.90;;;6.00;99.90;;;;;;5042737;28;20195;-48
2022/04/21 03:02:20;;;;;;;4.00;3.60;;;6.00;99.90;;;;;;5054913;28;20240;-53
2022/04/21 03:04:47;;;;;;;4.77;4.17;;;6.00;99.90;;;;;;5040790;28;20208;-50
2022/04/21 03:07:17;;;;;;;6.83;4.40;;;6.10;99.90;;;;;;5053686;28;20191;-51
2022/04/21 03:09:44;;;;;;;6.17;3.93;;;6.10;99.90;;;;;;5041861;28;20299;-50
2022/04/21 03:12:12;;;;;;;4.50;4.10;;;6.10;99.90;;;;;;5044343;28;20280;-46
2022/04/21 03:14:39;;;;;;;5.83;4.17;;;6.00;99.90;;;;;;5046751;28;20653;-46
2022/04/21 03:17:09;;;;;;;4.37;3.97;;;6.00;99.90;;;;;;5053787;28;20214;-51
2022/04/21 03:19:38;;;;;;;6.97;4.23;;;6.00;99.90;;;;;;5047089;28;20203;-49
2022/04/21 03:24:50;;;;;;;6.17;3.97;;;6.00;99.90;;;;;;5043125;28;20187;-52
2022/04/21 03:27:17;;;;;;;6.63;5.87;;;5.90;99.90;;;;;;5043891;28;20191;-49
2022/04/21 03:29:44;;;;;;;5.83;5.20;;;5.90;99.90;;;;;;5046140;28;20203;-49
2022/04/21 03:32:14;;;;;;;6.20;4.87;;;5.90;99.90;;;;;;5056347;28;20225;-51
2022/04/21 03:34:42;;;;;;;5.53;4.57;;;5.90;99.90;;;;;;5045963;28;20211;-53
2022/04/21 03:37:11;;;;;;;5.57;4.60;;;5.90;99.90;;;;;;5043911;28;20226;-50
2022/04/21 03:39:39;;;;;;;8.13;4.50;;;5.80;99.90;;;;;;5051113;28;20195;-47
2022/04/21 03:42:07;;;;;;;4.53;3.67;;;5.80;99.90;;;;;;5046170;28;20226;-47
2022/04/21 03:44:40;;;;;;;8.80;5.07;;;5.80;99.90;;;;;;5050107;28;20207;-49
2022/04/21 03:47:07;;;;;;;13.13;6.93;;;5.80;99.90;;;;;;5045291;28;20198;-50
2022/04/21 03:49:35;;;;;;;10.43;6.00;;;5.80;99.90;;;;;;5043594;28;20206;-49
2022/04/21 03:52:02;;;;;;;11.37;6.37;;;5.80;99.90;;;;;;5034222;28;21327;-48
2022/04/21 03:54:29;;;;;;;11.10;5.67;;;5.80;99.90;;;;;;5046884;28;20207;-46
2022/04/21 03:56:56;;;;;;;9.90;5.97;;;5.70;99.90;;;;;;5049929;28;20934;-46
2022/04/21 03:59:24;;;;;;;7.57;5.30;;;5.70;99.90;;;;;;5051099;28;20705;-47
2022/04/21 04:01:51;;;;;;;11.47;5.60;;;5.60;99.90;;;;;;5052097;28;20211;-49
2022/04/21 04:04:18;;;;;;;7.37;5.50;;;5.70;99.90;;;;;;5050763;28;20619;-49
2022/04/21 04:12:16;;;;;;;9.10;6.57;;;6.10;99.90;;;;;;5061003;28;20206;-51
2022/04/21 04:14:42;;;;;;;11.33;5.77;;;5.60;99.90;;;;;;5043561;28;20507;-48
2022/04/21 04:17:10;;;;;;;6.37;5.20;;;5.50;99.90;;;;;;5055825;28;20218;-50
2022/04/21 04:19:36;;;;;;;8.20;5.73;;;5.60;99.90;;;;;;5047743;28;20206;-47
2022/04/21 04:22:06;;;;;;;9.53;6.17;;;5.60;99.90;;;;;;5057335;28;20214;-48
2022/04/21 04:24:33;;;;;;;9.50;6.07;;;5.60;99.90;;;;;;5037559;28;20203;-52
2022/04/21 04:27:00;;;;;;;10.73;6.40;;;5.60;99.90;;;;;;5049178;28;20199;-50
2022/04/21 04:29:26;;;;;;;7.93;5.30;;;5.60;99.90;;;;;;5056728;28;20195;-49
2022/04/21 04:31:54;;;;;;;9.93;5.13;;;5.70;99.90;;;;;;5059115;28;20884;-47
2022/04/21 04:34:20;;;;;;;5.73;4.80;;;5.80;99.90;;;;;;5048786;28;20283;-50
2022/04/21 04:36:48;;;;;;;9.03;4.47;;;5.80;99.90;;;;;;5048862;28;20230;-47
2022/04/21 04:39:17;;;;;;;6.57;5.47;;;5.80;99.90;;;;;;5047739;28;20213;-51
2022/04/21 04:44:29;;;;;;;6.63;4.90;;;5.90;99.90;;;;;;5056034;28;20880;-48
2022/04/21 04:46:54;;;;;;;10.17;5.70;;;5.90;99.90;;;;;;5046865;28;20620;-50
2022/04/21 04:49:21;;;;;;;8.93;6.33;;;5.90;99.90;;;;;;5045938;28;20218;-53
2022/04/21 04:51:48;;;;;;;8.57;5.67;;;6.00;99.90;;;;;;5051640;28;20238;-52
2022/04/21 04:54:16;;;;;;;8.30;4.73;;;6.00;99.90;;;;;;5046842;28;20214;-49
2022/04/21 04:56:45;;;;;;;8.23;5.53;;;6.10;99.90;;;;;;5039552;28;20225;-47
2022/04/21 04:59:12;;;;;;;14.87;6.00;;;6.20;99.90;;;;;;5052737;28;20195;-49
2022/04/21 05:01:41;;;;;;;7.33;5.17;;;6.20;99.90;;;;;;5054141;28;20219;-47
2022/04/21 05:04:10;;;;;;;6.37;4.17;;;6.20;99.90;;;;;;5057942;28;20206;-49
2022/04/21 05:06:38;;;;;;;6.77;4.83;;;6.30;99.90;;;;;;5052609;28;20200;-50
2022/04/21 05:09:06;;;;;;;7.00;5.40;;;6.30;99.90;;;;;;5047585;28;20573;-48
2022/04/21 05:11:34;;;;;;;7.97;5.10;;;6.40;99.90;;;;;;5057994;28;20956;-47
2022/04/21 05:14:01;;;;;;;8.97;5.03;;;6.50;99.90;;;;;;5054719;28;20203;-48
2022/04/21 05:16:28;;;;;;;8.73;4.60;;;6.50;99.90;;;;;;5043785;28;20230;-49
2022/04/21 05:18:56;;;;;;;7.93;5.20;;;6.50;99.90;;;;;;5047227;28;20202;-49
2022/04/21 05:21:23;;;;;;;6.87;4.90;;;6.60;99.90;;;;;;5050433;28;20317;-50
2022/04/21 05:23:55;;;;;;;4.97;4.10;;;6.70;99.90;;;;;;5058781;28;20204;-50
2022/04/21 05:26:23;;;;;;;4.90;3.50;;;6.70;99.90;;;;;;5037280;28;20214;-48
2022/04/21 05:28:52;;;;;;;4.07;3.67;;;6.80;99.90;;;;;;5055830;28;20218;-48
2022/04/21 05:31:19;;;;;;;6.30;3.43;;;6.90;99.90;;;;;;5059603;28;20206;-48
2022/04/21 05:33:46;;;;;;;4.70;3.77;;;7.00;99.90;;;;;;5060721;28;20182;-50
2022/04/21 05:36:14;;;;;;;4.50;3.40;;;7.00;99.90;;;;;;5046096;28;20231;-47
2022/04/21 05:38:41;;;;;;;4.93;3.90;;;7.10;99.90;;;;;;5059954;28;20254;-47
2022/04/21 05:41:08;;;;;;;4.97;3.70;;;7.20;99.90;;;;;;5042550;28;20306;-54
2022/04/21 05:43:42;;;;;;;7.77;3.80;;;7.30;99.90;;;;;;5056400;28;20421;-47
2022/04/21 05:46:12;;;;;;;4.60;3.90;;;7.40;99.90;;;;;;5058908;28;20201;-48
2022/04/21 05:48:40;;;;;;;7.00;3.60;;;7.40;99.90;;;;;;5061564;28;20574;-49
2022/04/21 05:51:09;;;;;;;5.13;3.20;;;7.50;99.90;;;;;;5043330;28;20555;-50
2022/04/21 05:53:38;;;;;;;3.97;3.57;;;7.50;99.90;;;;;;5058639;28;20203;-51
2022/04/21 05:56:05;;;;;;;5.73;3.60;;;7.60;99.90;;;;;;5047223;28;20199;-53
2022/04/21 05:58:33;;;;;;;3.80;3.40;;;7.70;99.90;;;;;;5034954;28;20554;-51
2022/04/21 06:01:01;;;;;;;6.63;3.23;;;7.90;99.90;;;;;;5058122;28;20210;-51
2022/04/21 06:03:29;;;;;;;4.03;3.37;;;8.00;99.90;;;;;;5054651;28;20202;-48
2022/04/21 06:05:55;;;;;;;6.27;3.07;;;8.10;99.90;;;;;;5051150;28;20611;-52
2022/04/21 06:08:22;;;;;;;7.10;3.47;;;8.20;99.90;;;;;;5047566;28;20199;-52
2022/04/21 06:10:50;;;;;;;5.03;3.33;;;8.30;99.90;;;;;;5043981;28;20536;-50
2022/04/21 06:13:16;;;;;;;5.87;2.87;;;8.40;99.90;;;;;;5031190;28;20625;-52
2022/04/21 06:15:43;;;;;;;5.30;2.90;;;8.50;99.90;;;;;;5058795;28;20293;-50
2022/04/21 06:18:10;;;;;;;6.03;2.93;;;8.60;99.90;;;;;;5044928;28;20212;-47
2022/04/21 06:20:38;;;;;;;4.90;2.77;;;8.70;99.90;;;;;;5053933;28;20203;-50
2022/04/21 06:23:05;;;;;;;3.27;2.73;;;8.70;99.90;;;;;;5046314;28;20345;-48
2022/04/21 06:25:32;;;;;;;3.03;2.73;;;8.80;99.90;;;;;;5058052;28;20188;-51
2022/04/21 06:27:59;;;;;;;4.47;2.50;;;8.90;99.90;;;;;;5038179;28;20298;-48
2022/04/21 06:30:26;;;;;;;3.37;2.83;;;8.90;99.90;;;;;;5059751;28;20209;-47
2022/04/21 06:32:53;;;;;;;2.93;2.63;;;9.00;99.90;;;;;;5057465;28;20329;-53
2022/04/21 06:35:21;;;;;;;4.47;2.50;;;9.10;99.90;;;;;;5054521;28;20222;-47
2022/04/21 06:37:49;;;;;;;2.93;2.73;;;9.10;99.90;;;;;;5051882;28;20223;-48
2022/04/21 06:40:16;;;;;;;3.23;2.43;;;9.20;99.90;;;;;;5056453;28;20198;-48
2022/04/21 06:42:43;;;;;;;7.83;3.10;;;9.30;99.90;;;;;;5054105;28;20215;-50
2022/04/21 06:48:05;;;;;;;4.63;2.50;;;9.50;99.90;;;;;;5051129;28;20191;-53
2022/04/21 06:50:33;;;;;;;2.63;2.40;;;9.50;99.90;;;;;;5050493;28;20333;-48
2022/04/21 06:53:02;;;;;;;3.17;2.50;;;9.60;99.90;;;;;;5051023;28;20226;-52
2022/04/21 06:55:29;;;;;;;2.57;2.37;;;9.60;99.90;;;;;;5050840;28;20209;-51
2022/04/21 06:57:56;;;;;;;3.70;2.37;;;9.70;99.90;;;;;;5049176;28;20644;-48
2022/04/21 07:00:26;;;;;;;5.73;2.50;;;9.80;99.90;;;;;;5042818;28;20199;-50
2022/04/21 07:02:54;;;;;;;3.20;2.73;;;9.80;99.90;;;;;;5051483;28;20680;-54
2022/04/21 07:05:22;;;;;;;3.73;2.20;;;9.90;99.90;;;;;;5051883;28;20210;-47
2022/04/21 07:07:49;;;;;;;2.60;2.20;;;10.00;99.90;;;;;;5050690;28;20187;-48
2022/04/21 07:10:19;;;;;;;3.80;2.10;;;10.10;99.90;;;;;;5046931;28;20195;-48
2022/04/21 07:12:47;;;;;;;2.50;2.30;;;10.10;99.90;;;;;;5052208;28;20227;-49
2022/04/21 07:15:14;;;;;;;2.03;1.83;;;10.20;99.90;;;;;;5039244;28;20202;-47
2022/04/21 07:17:41;;;;;;;4.23;2.77;;;10.30;99.90;;;;;;5055253;28;20987;-51
2022/04/21 07:20:10;;;;;;;4.87;2.43;;;10.40;99.90;;;;;;5048450;28;20361;-52
2022/04/21 07:22:37;;;;;;;4.30;2.10;;;10.50;99.90;;;;;;5051259;28;20215;-51
2022/04/21 07:25:07;;;;;;;6.50;2.40;;;10.60;99.90;;;;;;5047375;28;20199;-48
2022/04/21 07:27:36;;;;;;;2.50;2.30;;;10.60;99.90;;;;;;5042528;28;20913;-45
2022/04/21 07:30:02;;;;;;;2.53;2.00;;;10.70;99.90;;;;;;5057126;28;20276;-47
2022/04/21 07:32:29;;;;;;;4.03;2.43;;;10.80;99.90;;;;;;5035491;28;20302;-45
2022/04/21 07:34:56;;;;;;;4.27;2.20;;;10.80;99.90;;;;;;5050801;28;20198;-47
2022/04/21 07:37:23;;;;;;;2.13;1.93;;;10.90;99.90;;;;;;5053506;28;20593;-48
2022/04/21 07:39:49;;;;;;;2.33;2.00;;;11.00;99.90;;;;;;5044825;28;20278;-47
2022/04/21 07:42:16;;;;;;;3.27;1.90;;;11.10;99.90;;;;;;5050544;28;20214;-48
2022/04/21 07:44:44;;;;;;;3.50;2.60;;;11.20;99.90;;;;;;5050736;28;20221;-46
2022/04/21 07:47:11;;;;;;;4.80;2.23;;;11.30;99.90;;;;;;5034375;28;20211;-50
2022/04/21 07:49:47;;;;;;;2.37;1.90;;;11.40;99.90;;;;;;5053742;28;20198;-51
2022/04/21 07:55:08;;;;;;;1.83;1.60;;;11.50;99.90;;;;;;5049864;28;20225;-51
2022/04/21 07:57:35;;;;;;;3.30;1.80;;;11.60;99.90;;;;;;5041488;28;20219;-49
2022/04/21 08:00:05;;;;;;;2.27;2.07;;;11.70;99.90;;;;;;5048248;28;20681;-50
2022/04/21 08:02:39;;;;;;;2.87;2.00;;;11.80;99.90;;;;;;5039151;28;20213;-46
2022/04/21 08:05:07;;;;;;;3.00;1.73;;;11.90;99.90;;;;;;5054774;28;20204;-53
2022/04/21 08:07:34;;;;;;;1.90;1.80;;;12.00;99.90;;;;;;5046014;28;20194;-49
2022/04/21 08:10:02;;;;;;;2.07;1.87;;;12.10;99.90;;;;;;5049983;28;20203;-54
2022/04/21 08:12:29;;;;;;;9.43;1.97;;;12.10;99.90;;;;;;5046124;28;20210;-47
2022/04/21 08:14:56;;;;;;;2.07;1.40;;;12.20;99.90;;;;;;5049281;28;20665;-47
2022/04/21 08:17:24;;;;;;;2.57;1.83;;;12.30;99.90;;;;;;5043071;28;20215;-51
2022/04/21 08:19:51;;;;;;;2.23;1.73;;;12.40;99.90;;;;;;5053151;28;20207;-46
2022/04/21 08:22:18;;;;;;;1.77;1.67;;;12.40;99.90;;;;;;5053206;28;20703;-49
2022/04/21 08:33:00;;;;;;;2.00;1.80;;;12.60;98.20;;;;;;5039754;28;20593;-49
2022/04/21 08:35:27;;;;;;;1.77;1.67;;;12.70;97.90;;;;;;5049217;28;20244;-47
2022/04/21 08:37:53;;;;;;;2.27;1.80;;;12.80;97.70;;;;;;5050311;28;20219;-47
2022/04/21 08:40:22;;;;;;;3.70;1.77;;;12.90;97.70;;;;;;5052003;28;20292;-51
2022/04/21 08:42:52;;;;;;;1.90;1.40;;;13.10;97.50;;;;;;5047615;28;20223;-48
2022/04/21 08:45:19;;;;;;;4.53;1.70;;;13.20;97.10;;;;;;5052049;28;20230;-50
2022/04/21 08:47:49;;;;;;;1.70;1.60;;;13.10;96.30;;;;;;5043988;28;20202;-47
2022/04/21 08:50:17;;;;;;;2.50;1.60;;;13.10;96.00;;;;;;5043090;28;20218;-49
2022/04/21 08:52:44;;;;;;;2.17;1.60;;;13.10;96.30;;;;;;5054685;28;20940;-47
2022/04/21 08:55:11;;;;;;;2.83;1.70;;;13.10;95.70;;;;;;5060871;28;20198;-53
2022/04/21 08:57:38;;;;;;;1.83;1.50;;;13.20;95.00;;;;;;5044678;28;20213;-49
2022/04/21 09:00:08;;;;;;;1.87;1.70;;;13.10;94.40;;;;;;5052858;28;20228;-47
2022/04/21 09:02:36;;;;;;;2.37;1.90;;;13.10;94.50;;;;;;5058281;28;20210;-49
2022/04/21 09:05:04;;;;;;;2.03;1.50;;;13.10;94.50;;;;;;5043716;28;20268;-48
2022/04/21 09:07:32;;;;;;;1.70;1.60;;;13.20;94.20;;;;;;5053537;28;20202;-51
2022/04/21 09:10:06;;;;;;;3.97;1.43;;;13.30;94.10;;;;;;5062959;28;20197;-48
2022/04/21 09:12:34;;;;;;;19.90;1.83;;;13.30;94.10;;;;;;5053497;28;20207;-49
2022/04/21 09:15:09;;;;;;;2.10;1.70;;;13.30;94.30;;;;;;5052950;28;20198;-49
2022/04/21 09:17:41;;;;;;;3.83;1.70;;;13.30;94.30;;;;;;5047505;28;20226;-49
2022/04/21 09:20:08;;;;;;;1.50;1.40;;;13.40;94.50;;;;;;5041154;28;20227;-50
2022/04/21 09:22:40;;;;;;;2.27;1.57;;;13.50;94.70;;;;;;5057866;28;20210;-51
2022/04/21 09:25:13;;;;;;;4.07;2.00;;;;;;;;;;5067961;28;20203;-48
2022/04/21 09:27:42;;;;;;;1.90;1.80;;;13.60;99.90;;;;;;5050201;28;20187;-47
2022/04/21 09:30:12;;;;;;;1.90;1.73;;;13.70;94.20;;;;;;5054733;28;20191;-49
2022/04/21 09:32:52;;;;;;;2.30;1.90;;;13.70;94.10;;;;;;5056929;28;20459;-47
2022/04/21 09:35:20;;;;;;;2.90;1.57;;;13.80;99.90;;;;;;5044831;28;20203;-49
2022/04/21 09:37:49;;;;;;;6.23;1.80;;;13.90;94.30;;;;;;5056983;28;20218;-48
2022/04/21 09:40:18;;;;;;;1.60;1.50;;;14.00;93.80;;;;;;5056983;28;20329;-48
2022/04/21 09:42:53;;;;;;;4.20;1.63;;;14.00;93.70;;;;;;5057236;28;20261;-54
2022/04/21 09:48:17;;;;;;;2.70;1.43;;;13.90;92.50;;;;;;5055813;28;20267;-49
2022/04/21 09:50:49;;;;;;;2.00;1.90;;;13.90;92.40;;;;;;5041691;28;20218;-48
2022/04/21 09:53:19;;;;;;;1.77;1.60;;;14.00;92.80;;;;;;5053808;28;20701;-49
2022/04/21 09:55:46;;;;;;;3.50;1.83;;;14.10;93.10;;;;;;5049424;28;20697;-51
2022/04/21 09:58:13;;;;;;;3.77;1.93;;;14.10;93.00;;;;;;5045890;28;20241;-46
2022/04/21 10:00:41;;;;;;;3.40;1.80;;;14.20;92.90;;;;;;5055502;28;20222;-47
2022/04/21 10:03:08;;;;;;;1.90;1.80;;;14.20;93.10;;;;;;5057706;28;20691;-48
2022/04/21 10:05:37;;;;;;;3.23;1.60;;;14.20;92.60;;;;;;5040648;28;20368;-50
2022/04/21 10:08:06;;;;;;;3.63;1.93;;;14.30;92.90;;;;;;5057423;28;20191;-50
2022/04/21 10:10:35;;;;;;;3.43;1.97;;;14.40;95.20;;;;;;5054129;28;20202;-47
2022/04/21 10:13:04;;;;;;;2.13;1.90;;;14.70;92.70;;;;;;5058311;28;20277;-51
2022/04/21 10:15:31;;;;;;;2.00;1.80;;;14.80;92.20;;;;;;5050332;28;20993;-46
2022/04/21 10:17:58;;;;;;;2.10;1.90;;;14.80;91.50;;;;;;5045859;28;20600;-47
2022/04/21 10:20:26;;;;;;;2.23;1.60;;;14.70;91.50;;;;;;5047518;28;20203;-49
2022/04/21 10:22:55;;;;;;;2.37;2.10;;;14.70;91.80;;;;;;5035906;28;20332;-51
2022/04/21 10:25:36;;;;;;;2.63;1.70;;;14.60;91.10;;;;;;5046829;28;20265;-49
2022/04/21 10:28:22;;;;;;;2.27;1.83;;;14.60;90.90;;;;;;5067233;28;20247;-50
2022/04/21 10:30:49;;;;;;;3.57;1.57;;;14.60;90.90;;;;;;5044893;28;20223;-46
2022/04/21 10:33:16;;;;;;;1.70;1.50;;;14.70;90.80;;;;;;5046529;28;20304;-51
2022/04/21 10:35:57;;;;;;;4.57;1.60;;;14.90;91.10;;;;;;5058072;28;20221;-48
2022/04/21 10:38:25;;;;;;;3.73;1.93;;;14.90;90.80;;;;;;5043853;28;20230;-48
2022/04/21 10:40:58;;;;;;;6.27;1.47;;;15.10;90.90;;;;;;5050649;28;20200;-46
2022/04/21 10:43:25;;;;;;;1.63;1.43;;;15.20;90.40;;;;;;5050349;28;20243;-48
2022/04/21 10:46:05;;;;;;;2.47;1.33;;;15.40;90.50;;;;;;5056838;28;20199;-48
2022/04/21 10:48:41;;;;;;;2.60;1.37;;;15.40;88.60;;;;;;5057605;28;20198;-45
2022/04/21 10:51:09;;;;;;;1.70;1.43;;;15.40;94.00;;;;;;5057368;28;20198;-47
2022/04/21 10:59:31;;;;;;;2.17;1.77;;;15.60;88.50;;;;;;5054995;28;20689;-49
2022/04/21 11:02:11;;;;;;;3.37;1.83;;;15.60;89.80;;;;;;5054367;28;20824;-50
2022/04/21 11:04:38;;;;;;;6.03;1.53;;;15.70;90.10;;;;;;5052726;28;20199;-49
2022/04/21 11:07:12;;;;;;;2.47;1.60;;;15.80;89.10;;;;;;5055923;28;20291;-47
2022/04/21 11:09:50;;;;;;;3.90;1.53;;;15.80;88.20;;;;;;5040923;28;20207;-45
2022/04/21 11:12:49;;;;;;;3.03;1.90;;;15.90;88.40;;;;;;5053732;28;20236;-50
2022/04/21 11:15:33;;;;;;;5.33;2.27;;;15.80;86.90;;;;;;5054955;28;20200;-51
2022/04/21 11:18:02;;;;;;;3.20;1.97;;;15.80;86.30;;;;;;5042948;28;20214;-46
2022/04/21 11:20:28;;;;;;;2.83;2.13;;;15.70;88.30;;;;;;5061339;28;20198;-46
2022/04/21 11:22:56;;;;;;;3.60;2.00;;;15.70;87.60;;;;;;5049435;28;20222;-48
2022/04/21 11:25:23;;;;;;;1.77;1.67;;;15.70;87.80;;;;;;5040422;28;20214;-46
2022/04/21 11:27:52;;;;;;;3.50;1.90;;;15.70;87.50;;;;;;5053945;28;20669;-47
2022/04/21 11:30:19;;;;;;;3.90;1.80;;;15.80;88.60;;;;;;5061267;28;20621;-53
2022/04/21 11:32:51;;;;;;;2.10;1.73;;;15.80;87.70;;;;;;5046301;28;20341;-50
2022/04/21 11:35:21;;;;;;;3.03;1.40;;;15.90;86.70;;;;;;5047244;28;20257;-50
2022/04/21 11:37:58;;;;;;;2.97;1.90;;;15.90;86.80;;;;;;5053113;28;20732;-47
2022/04/21 11:40:33;;;;;;;4.30;1.70;;;15.90;84.80;;;;;;5043520;28;20846;-52
2022/04/21 11:43:04;;;;;;;2.37;1.60;;;15.90;84.60;;;;;;5051011;28;20218;-49
2022/04/21 11:45:35;;;;;;;1.90;1.80;;;15.90;83.40;;;;;;5053201;28;20209;-49
2022/04/21 11:48:09;;;;;;;8.10;2.00;;;15.80;84.80;;;;;;5052330;28;20189;-49
2022/04/21 11:50:36;;;;;;;4.83;1.83;;;15.70;85.00;;;;;;5059654;28;20213;-50
2022/04/21 11:53:12;;;;;;;4.40;1.83;;;15.70;84.70;;;;;;5047754;28;20207;-50
2022/04/21 11:55:39;;;;;;;4.60;1.50;;;15.70;85.90;;;;;;5036876;28;20213;-49
2022/04/21 11:58:07;;;;;;;3.23;2.33;;;15.60;85.10;;;;;;5048334;28;20281;-47
2022/04/21 12:08:51;;;;;;;3.20;1.70;;;15.30;85.70;;;;;;5047376;28;20550;-49
2022/04/21 12:11:22;;;;;;;1.87;1.70;;;15.20;85.80;;;;;;5041582;28;20214;-46
2022/04/21 12:13:51;;;;;;;2.93;1.80;;;15.20;85.30;;;;;;5047745;28;20252;-50
2022/04/21 12:16:38;;;;;;;3.50;2.00;;;15.20;85.80;;;;;;5057973;28;20687;-46
2022/04/21 12:19:20;;;;;;;3.77;1.70;;;15.20;85.70;;;;;;5045556;28;20313;-49
2022/04/21 12:21:56;;;;;;;4.60;1.80;;;15.30;84.50;;;;;;5050315;28;20218;-52
2022/04/21 12:24:28;;;;;;;3.43;1.80;;;15.30;85.40;;;;;;5049039;28;20214;-48
2022/04/21 12:26:55;;;;;;;4.10;1.80;;;15.40;84.50;;;;;;5041502;28;20210;-47
2022/04/21 12:29:24;;;;;;;4.63;2.00;;;15.40;85.10;;;;;;5059120;28;20201;-50
2022/04/21 12:31:52;;;;;;;4.23;1.97;;;15.40;85.00;;;;;;5045691;28;20222;-48
2022/04/21 12:34:27;;;;;;;5.50;2.13;;;15.30;84.60;;;;;;5057241;28;20190;-50
2022/04/21 12:36:57;;;;;;;2.93;1.57;;;15.20;84.10;;;;;;5059811;28;20209;-45
2022/04/21 12:39:25;;;;;;;4.43;1.73;;;15.20;84.80;;;;;;5052677;28;20603;-47
2022/04/21 12:41:52;;;;;;;2.93;1.97;;;15.10;84.60;;;;;;5046810;28;20304;-47
2022/04/21 12:44:23;;;;;;;2.17;1.97;;;15.00;85.80;;;;;;5054681;28;20332;-47
2022/04/21 12:47:06;;;;;;;4.13;2.07;;;15.00;85.80;;;;;;5060815;28;20580;-49
2022/04/21 12:50:08;;;;;;;5.03;2.00;;;14.90;85.50;;;;;;5051682;28;20195;-51
2022/04/21 12:52:37;;;;;;;3.07;2.13;;;14.90;85.80;;;;;;5055337;28;20268;-47
2022/04/21 12:55:07;;;;;;;2.20;2.00;;;14.90;87.80;;;;;;5058986;28;20210;-49
2022/04/21 12:57:34;;;;;;;2.63;2.30;;;14.90;87.70;;;;;;5043530;28;20354;-46
2022/04/21 13:00:00;;;;;;;4.43;2.13;;;14.80;87.40;;;;;;5055206;28;20300;-48
2022/04/21 13:02:28;;;;;;;4.63;2.60;;;14.70;87.70;;;;;;5054337;28;20219;-47
2022/04/21 13:04:57;;;;;;;2.27;1.97;;;14.60;88.90;;;;;;5056475;28;20204;-47
2022/04/21 13:07:24;;;;;;;3.77;2.20;;;14.50;89.60;;;;;;5053285;28;20285;-47
2022/04/21 13:09:51;;;;;;;6.27;2.50;;;14.40;90.10;;;;;;5052074;28;20202;-51
2022/04/21 13:12:17;;;;;;;5.90;2.47;;;14.30;90.00;;;;;;5038435;28;20230;-47
2022/04/21 13:14:44;;;;;;;5.30;2.70;;;14.30;90.20;;;;;;5054346;28;20210;-49
2022/04/21 13:17:11;;;;;;;4.00;2.30;;;14.20;90.70;;;;;;5053858;28;20826;-52
2022/04/21 13:19:39;;;;;;;6.17;2.60;;;14.20;91.00;;;;;;5053501;28;20222;-47
2022/04/21 13:22:05;;;;;;;3.83;2.20;;;14.10;91.00;;;;;;5055264;28;20223;-50
2022/04/21 13:24:33;;;;;;;2.73;2.33;;;14.20;91.40;;;;;;5059568;28;20198;-50
2022/04/21 13:27:01;;;;;;;2.93;2.30;;;14.20;91.40;;;;;;5050887;28;20252;-52
2022/04/21 13:29:29;;;;;;;3.37;2.37;;;14.30;91.50;;;;;;5057173;28;20203;-47
2022/04/21 13:34:42;;;;;;;6.40;2.10;;;14.50;92.00;;;;;;5062501;28;20201;-47
2022/04/21 13:37:09;;;;;;;3.13;2.43;;;14.70;91.70;;;;;;5052516;28;20219;-49
2022/04/21 13:39:36;;;;;;;2.53;2.10;;;14.90;91.60;;;;;;5060933;28;20301;-45
2022/04/21 13:42:04;;;;;;;4.27;2.20;;;15.10;91.50;;;;;;5048602;28;20310;-50
2022/04/21 13:44:30;;;;;;;5.13;2.50;;;15.30;91.30;;;;;;5046188;28;20214;-51
2022/04/21 13:46:57;;;;;;;4.63;2.43;;;15.60;90.30;;;;;;5053278;28;20244;-51
2022/04/21 13:49:24;;;;;;;7.10;2.80;;;15.60;90.60;;;;;;5056620;28;20190;-47
2022/04/21 13:51:52;;;;;;;3.83;2.40;;;15.80;90.30;;;;;;5052682;28;20325;-47
2022/04/21 13:54:19;;;;;;;5.03;2.60;;;16.30;91.50;;;;;;5053009;28;20202;-47
2022/04/21 13:56:46;;;;;;;2.87;2.30;;;16.60;90.10;;;;;;5057595;28;20309;-46